createdAt,value
2019-02-11T00:00:23.809Z,18.1
2019-02-11T00:01:14.361Z,18.1
2019-02-11T00:02:04.521Z,18
2019-02-11T00:02:54.244Z,17.9
2019-02-11T00:03:44.256Z,17.9
2019-02-11T00:04:33.823Z,17.9
2019-02-11T00:05:23.546Z,17.9
2019-02-11T00:06:14.178Z,17.9
2019-02-11T00:07:03.689Z,17.9
2019-02-11T00:07:53.728Z,17.9
2019-02-11T00:08:44.604Z,18
2019-02-11T00:09:34.109Z,18.1
2019-02-11T00:10:24.736Z,18.1
2019-02-11T00:11:15.417Z,18.1
2019-02-11T00:12:03.738Z,18.1
2019-02-11T00:12:54.078Z,18.1
2019-02-11T00:13:44.741Z,18.1
2019-02-11T00:14:34.473Z,18.1
2019-02-11T00:15:23.948Z,18.3
2019-02-11T00:16:15.415Z,18.3
2019-02-11T00:17:05.528Z,18.3
2019-02-11T00:17:55.303Z,18.4
2019-02-11T00:18:45.626Z,18.3
2019-02-11T00:19:35.703Z,18.2
2019-02-11T00:20:24.925Z,18.1
2019-02-11T00:21:15.195Z,18.1
2019-02-11T00:22:05.833Z,18.1
2019-02-11T00:22:54.769Z,18.1
2019-02-11T00:23:45.143Z,18.2
2019-02-11T00:24:35.500Z,18.2
2019-02-11T00:25:24.660Z,18.2
2019-02-11T00:26:15.307Z,18.2
2019-02-11T00:27:05.083Z,18.2
2019-02-11T00:27:55.487Z,18.1
2019-02-11T00:28:46.332Z,18.1
2019-02-11T00:29:35.845Z,18
2019-02-11T00:30:26.392Z,18
2019-02-11T00:31:16.133Z,18
2019-02-11T00:32:06.299Z,18
2019-02-11T00:32:57.785Z,18
2019-02-11T00:33:46.382Z,18.1
2019-02-11T00:34:35.940Z,18.1
2019-02-11T00:35:25.643Z,18
2019-02-11T00:36:15.983Z,18
2019-02-11T00:37:06.897Z,18
2019-02-11T00:37:56.124Z,18
2019-02-11T00:38:45.905Z,18.1
2019-02-11T00:39:36.361Z,18.1
2019-02-11T00:40:26.084Z,18.1
2019-02-11T00:41:16.361Z,18.1
2019-02-11T00:42:05.844Z,18.1
2019-02-11T00:42:57.021Z,18.1
2019-02-11T00:43:47.049Z,18
2019-02-11T00:44:36.004Z,18
2019-02-11T00:45:26.901Z,17.9
2019-02-11T00:46:16.949Z,17.9
2019-02-11T00:47:07.043Z,17.8
2019-02-11T00:47:56.233Z,17.9
2019-02-11T00:48:46.589Z,17.9
2019-02-11T00:49:35.536Z,17.9
2019-02-11T00:50:27.096Z,17.9
2019-02-11T00:51:17.028Z,17.9
2019-02-11T00:52:07.096Z,17.9
2019-02-11T00:52:57.981Z,17.9
2019-02-11T00:53:48.339Z,17.9
2019-02-11T00:54:37.823Z,17.9
2019-02-11T00:55:27.935Z,18
2019-02-11T00:56:17.920Z,18.1
2019-02-11T00:57:08.023Z,18.1
2019-02-11T00:57:58.065Z,18.1
2019-02-11T00:58:47.291Z,18.1
2019-02-11T00:59:37.910Z,18.1
2019-02-11T01:00:27.465Z,17.9
2019-02-11T01:01:19.101Z,17.9
2019-02-11T01:02:07.494Z,18
2019-02-11T01:02:58.704Z,18
2019-02-11T01:03:48.205Z,18.1
2019-02-11T01:04:38.273Z,18.1
2019-02-11T01:05:28.041Z,18
2019-02-11T01:06:17.826Z,18
2019-02-11T01:07:10.353Z,18
2019-02-11T01:07:57.932Z,17.9
2019-02-11T01:08:47.985Z,17.9
2019-02-11T01:09:38.850Z,17.9
2019-02-11T01:10:27.877Z,17.9
2019-02-11T01:11:18.812Z,17.9
2019-02-11T01:12:08.769Z,17.9
2019-02-11T01:12:57.967Z,17.9
2019-02-11T01:13:48.447Z,17.9
2019-02-11T01:14:37.570Z,17.9
2019-02-11T01:15:27.602Z,17.9
2019-02-11T01:16:19.062Z,17.9
2019-02-11T01:17:09.120Z,17.9
2019-02-11T01:17:59.554Z,17.9
2019-02-11T01:18:48.472Z,18
2019-02-11T01:19:39.571Z,18
2019-02-11T01:20:28.524Z,18
2019-02-11T01:21:19.124Z,18.1
2019-02-11T01:22:10.059Z,18.1
2019-02-11T01:22:58.981Z,18.1
2019-02-11T01:23:48.463Z,18.2
2019-02-11T01:24:39.071Z,18.2
2019-02-11T01:25:29.136Z,18.3
2019-02-11T01:26:19.756Z,18.3
2019-02-11T01:27:10.098Z,18.3
2019-02-11T01:27:59.638Z,18.1
2019-02-11T01:28:49.703Z,18.1
2019-02-11T01:29:39.728Z,18
2019-02-11T01:30:30.373Z,18
2019-02-11T01:31:19.023Z,18.1
2019-02-11T01:32:09.590Z,18.1
2019-02-11T01:32:59.951Z,18.1
2019-02-11T01:33:50.668Z,18.1
2019-02-11T01:34:40.356Z,18
2019-02-11T01:35:30.677Z,18
2019-02-11T01:36:19.685Z,18
2019-02-11T01:37:09.398Z,17.9
2019-02-11T01:38:00.325Z,17.9
2019-02-11T01:38:50.663Z,17.9
2019-02-11T01:39:40.496Z,17.9
2019-02-11T01:40:30.800Z,17.9
2019-02-11T01:41:19.965Z,17.8
2019-02-11T01:42:10.392Z,17.8
2019-02-11T01:43:01.223Z,17.8
2019-02-11T01:43:50.742Z,17.8
2019-02-11T01:44:40.755Z,17.8
2019-02-11T01:45:30.550Z,17.9
2019-02-11T01:46:20.698Z,17.9
2019-02-11T01:47:10.157Z,17.9
2019-02-11T01:48:00.737Z,18
2019-02-11T01:48:51.615Z,18.1
2019-02-11T01:49:41.687Z,18.1
2019-02-11T01:50:31.452Z,18.1
2019-02-11T01:51:21.852Z,18.1
2019-02-11T01:52:10.807Z,18.1
2019-02-11T01:53:02.542Z,18.2
2019-02-11T01:53:52.262Z,18.2
2019-02-11T01:54:42.574Z,18.3
2019-02-11T01:55:31.527Z,18.1
2019-02-11T01:56:21.432Z,18
2019-02-11T01:57:11.160Z,17.9
2019-02-11T01:58:02.255Z,18
2019-02-11T01:58:51.539Z,18
2019-02-11T01:59:41.837Z,18
2019-02-11T02:00:31.606Z,18.1
2019-02-11T02:01:22.191Z,18.1
2019-02-11T02:02:12.264Z,18.1
2019-02-11T02:03:02.376Z,18.1
2019-02-11T02:03:52.114Z,18.1
2019-02-11T02:04:43.030Z,18
2019-02-11T02:05:31.678Z,17.9
2019-02-11T02:06:22.563Z,17.9
2019-02-11T02:07:12.918Z,17.8
2019-02-11T02:08:02.672Z,17.8
2019-02-11T02:08:53.285Z,17.8
2019-02-11T02:09:41.965Z,17.8
2019-02-11T02:10:32.296Z,17.8
2019-02-11T02:11:22.913Z,17.8
2019-02-11T02:12:12.976Z,17.8
2019-02-11T02:13:01.919Z,17.8
2019-02-11T02:13:52.988Z,17.8
2019-02-11T02:14:43.406Z,17.9
2019-02-11T02:15:33.238Z,17.9
2019-02-11T02:16:23.823Z,17.9
2019-02-11T02:17:12.774Z,17.9
2019-02-11T02:18:03.430Z,17.9
2019-02-11T02:18:52.610Z,17.9
2019-02-11T02:19:42.937Z,17.9
2019-02-11T02:20:34.107Z,18
2019-02-11T02:21:23.913Z,18.1
2019-02-11T02:22:12.138Z,18.1
2019-02-11T02:23:04.357Z,18.2
2019-02-11T02:23:54.340Z,18.1
2019-02-11T02:24:43.562Z,18
2019-02-11T02:25:33.698Z,17.9
2019-02-11T02:26:23.500Z,18
2019-02-11T02:27:13.761Z,18.1
2019-02-11T02:28:04.083Z,18.1
2019-02-11T02:28:53.572Z,18.1
2019-02-11T02:29:44.484Z,18.1
2019-02-11T02:30:33.868Z,18.1
2019-02-11T02:31:24.061Z,18.1
2019-02-11T02:32:13.938Z,18
2019-02-11T02:33:05.127Z,18
2019-02-11T02:33:54.779Z,17.9
2019-02-11T02:34:44.734Z,17.9
2019-02-11T02:35:34.741Z,17.8
2019-02-11T02:36:24.783Z,17.8
2019-02-11T02:37:15.330Z,17.8
2019-02-11T02:38:05.141Z,17.8
2019-02-11T02:38:55.045Z,17.8
2019-02-11T02:39:44.900Z,17.8
2019-02-11T02:40:34.512Z,17.8
2019-02-11T02:41:24.586Z,17.8
2019-02-11T02:42:15.744Z,17.8
2019-02-11T02:43:05.501Z,17.9
2019-02-11T02:44:04.616Z,17.9
2019-02-11T02:44:44.016Z,18
2019-02-11T02:45:34.088Z,18
2019-02-11T02:46:24.456Z,18
2019-02-11T02:47:14.988Z,17.9
2019-02-11T02:48:04.820Z,17.9
2019-02-11T02:48:55.412Z,17.9
2019-02-11T02:49:45.423Z,17.8
2019-02-11T02:50:35.223Z,17.8
2019-02-11T02:51:25.329Z,17.6
2019-02-11T02:52:14.313Z,17.6
2019-02-11T02:53:05.469Z,17.6
2019-02-11T02:53:55.195Z,17.6
2019-02-11T02:54:45.809Z,17.6
2019-02-11T02:55:35.264Z,17.6
2019-02-11T02:56:24.897Z,17.7
2019-02-11T02:57:15.855Z,17.7
2019-02-11T02:58:05.258Z,17.8
2019-02-11T02:58:55.883Z,17.8
2019-02-11T02:59:45.788Z,17.8
2019-02-11T03:00:36.166Z,17.8
2019-02-11T03:01:26.738Z,17.8
2019-02-11T03:02:16.531Z,17.9
2019-02-11T03:03:06.096Z,18
2019-02-11T03:03:56.270Z,18
2019-02-11T03:04:46.743Z,18
2019-02-11T03:08:18.900Z,17.9
2019-02-11T03:09:08.965Z,17.9
2019-02-11T03:09:59.877Z,18
2019-02-11T03:10:49.912Z,18
2019-02-11T03:11:39.168Z,18
2019-02-11T03:12:29.717Z,18
2019-02-11T03:13:19.762Z,17.9
2019-02-11T03:14:15.604Z,17.9
2019-02-11T03:14:58.901Z,17.9
2019-02-11T03:15:50.239Z,17.9
2019-02-11T03:16:38.658Z,17.9
2019-02-11T03:17:30.324Z,17.8
2019-02-11T03:18:20.306Z,17.8
2019-02-11T03:19:09.607Z,17.7
2019-02-11T03:19:59.419Z,17.8
2019-02-11T03:20:49.996Z,17.8
2019-02-11T03:21:39.767Z,17.7
2019-02-11T03:22:30.134Z,17.7
2019-02-11T03:23:19.960Z,17.8
2019-02-11T03:24:10.533Z,17.7
2019-02-11T03:24:59.511Z,17.8
2019-02-11T03:25:50.729Z,17.8
2019-02-11T03:26:40.101Z,17.8
2019-02-11T03:27:30.488Z,17.8
2019-02-11T03:28:20.254Z,17.9
2019-02-11T03:29:10.642Z,17.9
2019-02-11T03:30:01.287Z,17.9
2019-02-11T03:30:50.436Z,17.9
2019-02-11T03:31:41.334Z,17.9
2019-02-11T03:32:30.844Z,17.9
2019-02-11T03:33:21.626Z,18
2019-02-11T03:34:11.007Z,18
2019-02-11T03:35:01.390Z,18
2019-02-11T03:35:51.325Z,17.9
2019-02-11T03:36:41.185Z,17.8
2019-02-11T03:37:31.165Z,17.9
2019-02-11T03:38:21.548Z,17.9
2019-02-11T03:39:11.903Z,17.9
2019-02-11T03:40:01.178Z,18
2019-02-11T03:40:51.965Z,18
2019-02-11T03:41:41.489Z,18
2019-02-11T03:42:31.809Z,17.9
2019-02-11T03:43:21.615Z,17.9
2019-02-11T03:44:21.527Z,17.9
2019-02-11T03:45:01.216Z,17.8
2019-02-11T03:45:51.790Z,17.8
2019-02-11T03:46:41.621Z,17.7
2019-02-11T03:47:32.171Z,17.6
2019-02-11T03:48:21.685Z,17.6
2019-02-11T03:49:11.942Z,17.6
2019-02-11T03:50:01.637Z,17.6
2019-02-11T03:50:51.634Z,17.6
2019-02-11T03:51:41.407Z,17.6
2019-02-11T03:52:31.267Z,17.6
2019-02-11T03:53:21.847Z,17.7
2019-02-11T03:54:11.282Z,17.7
2019-02-11T03:55:02.762Z,17.8
2019-02-11T03:55:52.260Z,17.8
2019-02-11T03:56:41.497Z,17.8
2019-02-11T03:57:32.133Z,17.8
2019-02-11T03:58:22.203Z,17.9
2019-02-11T03:59:12.573Z,17.9
2019-02-11T04:00:02.502Z,17.9
2019-02-11T04:00:52.526Z,17.9
2019-02-11T04:01:42.878Z,18.1
2019-02-11T04:02:32.967Z,18.1
2019-02-11T04:03:23.019Z,18.1
2019-02-11T04:04:13.160Z,18.1
2019-02-11T04:05:03.210Z,17.9
2019-02-11T04:05:52.606Z,17.9
2019-02-11T04:06:43.288Z,17.9
2019-02-11T04:07:32.771Z,17.9
2019-02-11T04:08:22.769Z,17.9
2019-02-11T04:09:13.484Z,18
2019-02-11T04:10:03.981Z,18
2019-02-11T04:10:53.531Z,17.9
2019-02-11T04:11:43.575Z,17.9
2019-02-11T04:12:33.695Z,17.9
2019-02-11T04:13:23.436Z,17.9
2019-02-11T04:14:14.028Z,17.8
2019-02-11T04:15:04.633Z,17.8
2019-02-11T04:15:53.638Z,17.8
2019-02-11T04:16:43.885Z,17.7
2019-02-11T04:17:33.180Z,17.6
2019-02-11T04:18:24.595Z,17.7
2019-02-11T04:19:14.756Z,17.6
2019-02-11T04:20:04.681Z,17.7
2019-02-11T04:20:57.007Z,17.7
2019-02-11T04:21:44.079Z,17.7
2019-02-11T04:22:34.318Z,17.8
2019-02-11T04:23:24.722Z,17.8
2019-02-11T04:24:14.591Z,17.8
2019-02-11T04:25:04.076Z,17.8
2019-02-11T04:25:54.653Z,17.8
2019-02-11T04:26:44.627Z,17.9
2019-02-11T04:27:34.124Z,17.9
2019-02-11T04:28:25.069Z,18
2019-02-11T04:29:15.332Z,18
2019-02-11T04:30:05.190Z,18.1
2019-02-11T04:30:55.597Z,18.1
2019-02-11T04:31:44.515Z,18.1
2019-02-11T04:32:34.233Z,18.2
2019-02-11T04:33:24.874Z,18.2
2019-02-11T04:34:14.378Z,18.2
2019-02-11T04:35:05.081Z,18.2
2019-02-11T04:35:55.034Z,18.3
2019-02-11T04:36:45.684Z,18.2
2019-02-11T04:37:35.106Z,18.2
2019-02-11T04:38:25.420Z,18.1
2019-02-11T04:39:15.252Z,18
2019-02-11T04:40:04.939Z,17.9
2019-02-11T04:40:55.356Z,17.9
2019-02-11T04:41:45.366Z,17.8
2019-02-11T04:42:35.209Z,17.7
2019-02-11T04:43:25.591Z,17.7
2019-02-11T04:44:15.310Z,17.6
2019-02-11T04:45:06.194Z,17.6
2019-02-11T04:45:56.228Z,17.7
2019-02-11T04:46:46.310Z,17.7
2019-02-11T04:47:35.334Z,17.8
2019-02-11T04:48:25.873Z,17.8
2019-02-11T04:49:15.687Z,17.9
2019-02-11T04:50:06.804Z,17.9
2019-02-11T04:50:56.068Z,17.9
2019-02-11T04:51:45.809Z,17.9
2019-02-11T04:52:37.063Z,18
2019-02-11T04:53:25.941Z,18.1
2019-02-11T04:54:16.643Z,18.1
2019-02-11T04:55:06.529Z,18
2019-02-11T04:55:56.758Z,17.9
2019-02-11T04:56:47.018Z,17.9
2019-02-11T04:57:37.098Z,17.9
2019-02-11T04:58:26.033Z,18
2019-02-11T04:59:17.027Z,18
2019-02-11T05:00:07.836Z,18
2019-02-11T05:00:57.049Z,18.1
2019-02-11T05:01:46.530Z,18
2019-02-11T05:02:36.369Z,17.9
2019-02-11T05:03:26.955Z,17.9
2019-02-11T05:04:17.827Z,17.9
2019-02-11T05:05:07.543Z,17.8
2019-02-11T05:05:57.665Z,17.7
2019-02-11T05:06:48.140Z,17.7
2019-02-11T05:07:37.597Z,17.7
2019-02-11T05:08:27.130Z,17.7
2019-02-11T05:09:17.647Z,17.7
2019-02-11T05:10:08.301Z,17.7
2019-02-11T05:10:57.752Z,17.7
2019-02-11T05:11:47.566Z,17.7
2019-02-11T05:12:37.900Z,17.7
2019-02-11T05:13:28.264Z,17.7
2019-02-11T05:14:18.072Z,17.8
2019-02-11T05:15:07.823Z,17.8
2019-02-11T05:15:57.717Z,17.8
2019-02-11T05:16:47.908Z,17.9
2019-02-11T05:17:38.192Z,17.9
2019-02-11T05:18:28.079Z,18
2019-02-11T05:19:18.374Z,18
2019-02-11T05:20:07.569Z,18.1
2019-02-11T05:20:59.197Z,18.1
2019-02-11T05:21:47.503Z,18.1
2019-02-11T05:22:37.982Z,18.1
2019-02-11T05:23:28.967Z,17.9
2019-02-11T05:24:19.259Z,17.9
2019-02-11T05:25:09.073Z,17.9
2019-02-11T05:25:58.082Z,18
2019-02-11T05:26:48.346Z,18
2019-02-11T05:27:38.713Z,18
2019-02-11T05:28:29.346Z,18
2019-02-11T05:29:18.496Z,18
2019-02-11T05:30:09.632Z,17.9
2019-02-11T05:30:58.590Z,17.9
2019-02-11T05:31:49.582Z,17.9
2019-02-11T05:32:39.092Z,17.9
2019-02-11T05:33:29.799Z,17.8
2019-02-11T05:34:19.506Z,17.8
2019-02-11T05:35:10.542Z,17.7
2019-02-11T05:35:59.521Z,17.6
2019-02-11T05:36:49.321Z,17.6
2019-02-11T05:37:39.325Z,17.6
2019-02-11T05:38:29.171Z,17.6
2019-02-11T05:39:19.303Z,17.6
2019-02-11T05:40:10.291Z,17.6
2019-02-11T05:40:59.383Z,17.6
2019-02-11T05:41:49.449Z,17.6
2019-02-11T05:42:39.497Z,17.6
2019-02-11T05:43:30.357Z,17.7
2019-02-11T05:44:19.512Z,17.7
2019-02-11T05:45:10.558Z,17.7
2019-02-11T05:45:59.665Z,17.7
2019-02-11T05:46:50.776Z,17.8
2019-02-11T05:47:40.655Z,17.8
2019-02-11T05:48:29.225Z,17.8
2019-02-11T05:49:20.687Z,17.9
2019-02-11T05:50:09.995Z,18
2019-02-11T05:51:00.522Z,18
2019-02-11T05:51:50.667Z,18
2019-02-11T05:52:41.012Z,17.9
2019-02-11T05:53:30.744Z,17.8
2019-02-11T05:54:21.057Z,17.8
2019-02-11T05:55:10.859Z,17.8
2019-02-11T05:56:00.940Z,17.8
2019-02-11T05:56:51.204Z,17.9
2019-02-11T05:57:40.212Z,17.9
2019-02-11T05:58:31.093Z,17.9
2019-02-11T05:59:20.815Z,17.9
2019-02-11T06:00:10.591Z,17.9
2019-02-11T06:01:00.687Z,17.8
2019-02-11T06:01:51.041Z,17.8
2019-02-11T06:02:41.314Z,17.8
2019-02-11T06:03:31.802Z,17.7
2019-02-11T06:06:18.506Z,17.6
2019-02-11T06:07:08.172Z,17.6
2019-02-11T06:07:58.539Z,17.6
2019-02-11T06:08:48.286Z,17.6
2019-02-11T06:09:39.174Z,17.6
2019-02-11T06:10:28.746Z,17.6
2019-02-11T06:11:18.551Z,17.6
2019-02-11T06:12:09.399Z,17.6
2019-02-11T06:12:59.911Z,17.6
2019-02-11T06:13:49.123Z,17.6
2019-02-11T06:14:39.282Z,17.6
2019-02-11T06:15:29.258Z,17.7
2019-02-11T06:16:19.623Z,17.8
2019-02-11T06:17:09.658Z,17.8
2019-02-11T06:17:59.242Z,17.8
2019-02-11T06:18:48.542Z,17.8
2019-02-11T06:19:38.993Z,17.9
2019-02-11T06:20:29.385Z,17.9
2019-02-11T06:21:19.915Z,18
2019-02-11T06:22:10.525Z,17.9
2019-02-11T06:22:59.801Z,17.8
2019-02-11T06:23:49.566Z,17.7
2019-02-11T06:24:39.858Z,17.8
2019-02-11T06:25:30.773Z,17.8
2019-02-11T06:26:20.532Z,17.8
2019-02-11T06:27:09.667Z,17.8
2019-02-11T06:27:59.575Z,17.8
2019-02-11T06:28:50.548Z,17.8
2019-02-11T06:29:40.540Z,17.8
2019-02-11T06:30:30.067Z,17.7
2019-02-11T06:31:20.102Z,17.7
2019-02-11T06:32:11.357Z,17.7
2019-02-11T06:33:00.237Z,17.7
2019-02-11T06:33:49.998Z,17.7
2019-02-11T06:34:41.898Z,17.7
2019-02-11T06:35:30.954Z,17.6
2019-02-11T06:36:21.222Z,17.6
2019-02-11T06:37:09.734Z,17.6
2019-02-11T06:38:00.840Z,17.6
2019-02-11T06:38:50.967Z,17.6
2019-02-11T06:39:41.574Z,17.6
2019-02-11T06:40:31.439Z,17.6
2019-02-11T06:41:20.244Z,17.6
2019-02-11T06:42:11.479Z,17.6
2019-02-11T06:43:00.936Z,17.6
2019-02-11T06:43:51.239Z,17.6
2019-02-11T06:44:40.759Z,17.6
2019-02-11T06:45:31.053Z,17.6
2019-02-11T06:46:20.571Z,17.6
2019-02-11T06:47:12.019Z,17.6
2019-02-11T06:48:01.802Z,17.6
2019-02-11T06:48:51.849Z,17.5
2019-02-11T06:49:41.641Z,17.4
2019-02-11T06:50:31.976Z,17.4
2019-02-11T06:51:20.659Z,17.3
2019-02-11T06:52:10.691Z,17.3
2019-02-11T06:53:01.925Z,17.3
2019-02-11T06:53:51.093Z,17.3
2019-02-11T06:54:41.466Z,17.4
2019-02-11T06:55:31.261Z,17.4
2019-02-11T06:56:21.556Z,17.3
2019-02-11T06:57:14.161Z,17.1
2019-02-11T06:58:02.823Z,17.1
2019-02-11T06:58:52.260Z,17.2
2019-02-11T06:59:42.332Z,17.1
2019-02-11T07:00:31.905Z,17.2
2019-02-11T07:01:36.331Z,17.1
2019-02-11T07:02:12.222Z,17.1
2019-02-11T07:03:02.316Z,17.1
2019-02-11T07:03:52.630Z,17.1
2019-02-11T07:06:18.881Z,17.1
2019-02-11T07:07:58.390Z,16.9
2019-02-11T07:08:48.455Z,16.9
2019-02-11T07:09:39.106Z,16.9
2019-02-11T07:10:28.879Z,16.9
2019-02-11T07:11:17.835Z,16.9
2019-02-11T07:12:08.215Z,16.9
2019-02-11T07:12:59.574Z,16.8
2019-02-11T07:13:49.368Z,16.8
2019-02-11T07:14:39.695Z,16.8
2019-02-11T07:15:31.631Z,16.8
2019-02-11T07:16:19.592Z,16.8
2019-02-11T07:17:08.844Z,16.8
2019-02-11T07:17:59.112Z,16.9
2019-02-11T07:18:49.776Z,16.9
2019-02-11T07:19:40.036Z,16.9
2019-02-11T07:20:29.381Z,16.9
2019-02-11T07:21:19.034Z,16.9
2019-02-11T07:22:09.969Z,16.8
2019-02-11T07:22:59.442Z,16.8
2019-02-11T07:23:49.778Z,16.9
2019-02-11T07:24:40.131Z,16.9
2019-02-11T07:25:29.649Z,16.9
2019-02-11T07:26:19.679Z,16.9
2019-02-11T07:27:09.723Z,16.9
2019-02-11T07:28:00.676Z,16.9
2019-02-11T07:28:50.446Z,16.9
2019-02-11T07:29:39.904Z,16.9
2019-02-11T07:30:28.923Z,16.9
2019-02-11T07:31:20.564Z,16.9
2019-02-11T07:32:10.938Z,16.8
2019-02-11T07:33:00.745Z,16.8
2019-02-11T07:33:49.671Z,16.8
2019-02-11T07:34:39.733Z,16.8
2019-02-11T07:35:31.180Z,16.8
2019-02-11T07:36:22.605Z,16.8
2019-02-11T07:37:11.099Z,16.8
2019-02-11T07:38:01.407Z,16.7
2019-02-11T07:38:50.349Z,16.8
2019-02-11T07:39:40.906Z,16.8
2019-02-11T07:40:30.670Z,16.8
2019-02-11T07:41:21.250Z,16.8
2019-02-11T07:42:12.482Z,16.8
2019-02-11T07:42:59.717Z,16.8
2019-02-11T07:43:50.375Z,16.8
2019-02-11T07:44:39.542Z,16.8
2019-02-11T07:45:39.779Z,16.8
2019-02-11T07:46:21.653Z,16.8
2019-02-11T07:47:11.644Z,16.7
2019-02-11T07:48:01.526Z,16.8
2019-02-11T07:48:50.971Z,16.8
2019-02-11T07:49:41.368Z,16.8
2019-02-11T07:50:31.145Z,16.9
2019-02-11T07:51:20.939Z,16.9
2019-02-11T07:52:11.573Z,16.9
2019-02-11T07:53:01.618Z,16.9
2019-02-11T07:53:51.617Z,16.9
2019-02-11T07:54:42.042Z,16.9
2019-02-11T07:55:31.219Z,16.8
2019-02-11T07:56:22.925Z,16.8
2019-02-11T07:57:12.428Z,16.7
2019-02-11T07:58:02.409Z,16.7
2019-02-11T07:58:51.674Z,16.7
2019-02-11T07:59:42.557Z,16.7
2019-02-11T08:00:32.634Z,16.7
2019-02-11T08:01:22.907Z,16.7
2019-02-11T08:02:12.492Z,16.6
2019-02-11T08:03:02.534Z,16.6
2019-02-11T08:03:52.576Z,16.6
2019-02-11T08:04:43.246Z,16.6
2019-02-11T08:05:31.914Z,16.6
2019-02-11T08:06:22.764Z,16.7
2019-02-11T08:07:12.558Z,16.8
2019-02-11T08:08:03.411Z,16.8
2019-02-11T08:08:53.214Z,16.8
2019-02-11T08:09:42.728Z,16.8
2019-02-11T08:10:32.786Z,16.7
2019-02-11T08:11:22.778Z,16.6
2019-02-11T08:12:12.441Z,16.7
2019-02-11T08:13:03.523Z,16.7
2019-02-11T08:13:51.648Z,16.8
2019-02-11T08:14:43.569Z,16.8
2019-02-11T08:15:40.751Z,16.9
2019-02-11T08:16:23.995Z,16.9
2019-02-11T08:17:13.840Z,16.9
2019-02-11T08:18:05.286Z,16.8
2019-02-11T08:18:53.638Z,16.8
2019-02-11T08:19:43.496Z,16.8
2019-02-11T08:20:33.440Z,16.8
2019-02-11T08:21:24.033Z,16.7
2019-02-11T08:22:13.090Z,16.6
2019-02-11T08:23:13.790Z,16.6
2019-02-11T08:23:53.530Z,16.6
2019-02-11T08:24:44.067Z,16.5
2019-02-11T08:25:33.873Z,16.5
2019-02-11T08:26:23.358Z,16.5
2019-02-11T08:27:13.469Z,16.5
2019-02-11T08:28:03.550Z,16.5
2019-02-11T08:28:54.073Z,16.5
2019-02-11T08:29:43.602Z,16.5
2019-02-11T08:30:34.207Z,16.6
2019-02-11T08:31:24.545Z,16.6
2019-02-11T08:32:14.852Z,16.6
2019-02-11T08:33:04.697Z,16.7
2019-02-11T08:33:54.417Z,16.7
2019-02-11T08:34:44.800Z,16.6
2019-02-11T08:35:36.217Z,16.6
2019-02-11T08:36:24.547Z,16.6
2019-02-11T08:37:14.496Z,16.6
2019-02-11T08:38:04.432Z,16.7
2019-02-11T08:38:55.097Z,16.7
2019-02-11T08:39:44.835Z,16.7
2019-02-11T08:40:34.059Z,16.7
2019-02-11T08:41:24.954Z,16.7
2019-02-11T08:42:14.437Z,16.7
2019-02-11T08:43:05.096Z,16.7
2019-02-11T08:43:55.397Z,16.7
2019-02-11T08:44:43.781Z,16.6
2019-02-11T08:45:35.236Z,16.6
2019-02-11T08:46:25.025Z,16.6
2019-02-11T08:47:15.521Z,16.6
2019-02-11T08:48:04.328Z,16.6
2019-02-11T08:48:55.423Z,16.6
2019-02-11T08:49:46.008Z,16.6
2019-02-11T08:50:36.382Z,16.6
2019-02-11T08:51:27.366Z,16.6
2019-02-11T08:52:15.419Z,16.6
2019-02-11T08:53:04.944Z,16.6
2019-02-11T08:53:54.987Z,16.6
2019-02-11T08:54:45.103Z,16.7
2019-02-11T08:55:35.658Z,16.8
2019-02-11T08:56:26.251Z,16.9
2019-02-11T08:57:15.955Z,16.9
2019-02-11T08:58:06.400Z,16.8
2019-02-11T08:58:55.938Z,16.8
2019-02-11T08:59:46.215Z,16.8
2019-02-11T09:00:36.205Z,16.9
2019-02-11T09:01:26.896Z,16.9
2019-02-11T09:02:16.415Z,16.9
2019-02-11T09:03:06.980Z,16.9
2019-02-11T09:03:55.679Z,16.9
2019-02-11T09:04:46.575Z,16.9
2019-02-11T09:05:36.063Z,16.9
2019-02-11T09:06:26.795Z,16.9
2019-02-11T09:07:15.955Z,16.8
2019-02-11T09:08:08.818Z,16.8
2019-02-11T09:08:56.553Z,16.8
2019-02-11T09:09:46.914Z,16.8
2019-02-11T09:10:37.314Z,16.8
2019-02-11T09:11:27.228Z,16.7
2019-02-11T09:12:17.597Z,16.6
2019-02-11T09:13:07.418Z,16.6
2019-02-11T09:13:57.672Z,16.6
2019-02-11T09:14:47.059Z,16.6
2019-02-11T09:15:37.597Z,16.6
2019-02-11T09:16:28.487Z,16.6
2019-02-11T09:17:19.990Z,16.6
2019-02-11T09:18:08.292Z,16.6
2019-02-11T09:18:57.177Z,16.6
2019-02-11T09:19:47.632Z,16.8
2019-02-11T09:20:36.760Z,16.8
2019-02-11T09:21:28.201Z,16.8
2019-02-11T09:22:17.694Z,16.8
2019-02-11T09:23:06.701Z,16.8
2019-02-11T09:23:58.424Z,16.7
2019-02-11T09:24:48.139Z,16.7
2019-02-11T09:25:38.756Z,16.8
2019-02-11T09:26:28.277Z,16.8
2019-02-11T09:27:18.034Z,16.8
2019-02-11T09:28:08.919Z,16.9
2019-02-11T09:28:57.978Z,16.8
2019-02-11T09:29:48.541Z,16.8
2019-02-11T09:30:37.521Z,16.8
2019-02-11T09:31:28.324Z,16.8
2019-02-11T09:32:19.964Z,16.9
2019-02-11T09:33:08.269Z,16.8
2019-02-11T09:33:58.358Z,16.8
2019-02-11T09:34:47.478Z,16.8
2019-02-11T09:35:39.223Z,16.7
2019-02-11T09:36:28.766Z,16.7
2019-02-11T09:37:19.834Z,16.6
2019-02-11T09:38:07.970Z,16.6
2019-02-11T09:38:59.143Z,16.6
2019-02-11T09:39:48.763Z,16.6
2019-02-11T09:40:39.610Z,16.6
2019-02-11T09:41:29.358Z,16.6
2019-02-11T09:42:19.478Z,16.6
2019-02-11T09:43:09.714Z,16.6
2019-02-11T09:43:59.560Z,16.7
2019-02-11T09:44:50.089Z,16.7
2019-02-11T09:45:38.788Z,16.8
2019-02-11T09:46:29.427Z,16.8
2019-02-11T09:47:19.720Z,16.8
2019-02-11T09:48:09.540Z,16.8
2019-02-11T09:48:59.083Z,16.7
2019-02-11T09:49:50.160Z,16.7
2019-02-11T09:50:39.446Z,16.8
2019-02-11T09:51:30.572Z,16.8
2019-02-11T09:52:19.237Z,16.8
2019-02-11T09:53:09.572Z,16.9
2019-02-11T09:54:00.465Z,16.9
2019-02-11T09:54:50.065Z,16.9
2019-02-11T09:55:40.009Z,16.9
2019-02-11T09:56:30.117Z,16.8
2019-02-11T09:57:20.115Z,16.8
2019-02-11T09:58:11.052Z,16.8
2019-02-11T09:58:59.949Z,16.8
2019-02-11T09:59:50.627Z,16.8
2019-02-11T10:00:40.177Z,16.8
2019-02-11T10:01:31.039Z,16.8
2019-02-11T10:02:20.772Z,16.8
2019-02-11T10:03:10.909Z,16.7
2019-02-11T10:04:00.126Z,16.7
2019-02-11T10:04:51.214Z,16.6
2019-02-11T10:07:18.112Z,16.6
2019-02-11T10:08:09.089Z,16.6
2019-02-11T10:08:59.159Z,16.7
2019-02-11T10:09:50.369Z,16.8
2019-02-11T10:10:38.964Z,16.8
2019-02-11T10:11:27.823Z,16.9
2019-02-11T10:12:27.209Z,16.9
2019-02-11T10:13:08.278Z,16.9
2019-02-11T10:13:58.584Z,16.8
2019-02-11T10:14:48.976Z,16.8
2019-02-11T10:15:38.521Z,16.8
2019-02-11T10:16:31.204Z,16.9
2019-02-11T10:18:09.423Z,17.1
2019-02-11T10:19:49.261Z,17.1
2019-02-11T10:22:19.428Z,16.9
2019-02-11T10:23:09.552Z,16.9
2019-02-11T10:23:59.828Z,16.9
2019-02-11T10:24:49.682Z,16.8
2019-02-11T10:25:39.403Z,16.8
2019-02-11T10:26:30.007Z,16.7
2019-02-11T10:27:19.830Z,16.7
2019-02-11T10:28:09.842Z,16.6
2019-02-11T10:28:59.932Z,16.6
2019-02-11T10:29:49.133Z,16.6
2019-02-11T10:30:40.607Z,16.5
2019-02-11T10:31:29.572Z,16.5
2019-02-11T10:32:20.689Z,16.6
2019-02-11T10:33:09.953Z,16.6
2019-02-11T10:34:01.081Z,16.6
2019-02-11T10:34:50.336Z,16.6
2019-02-11T10:35:48.459Z,16.7
2019-02-11T10:36:30.412Z,16.8
2019-02-11T10:37:20.467Z,16.8
2019-02-11T10:38:09.712Z,16.9
2019-02-11T10:38:59.784Z,16.8
2019-02-11T10:39:51.509Z,16.8
2019-02-11T10:40:40.207Z,16.8
2019-02-11T10:41:30.763Z,16.8
2019-02-11T10:42:20.872Z,16.9
2019-02-11T10:43:11.316Z,16.9
2019-02-11T10:44:01.249Z,16.9
2019-02-11T10:47:20.395Z,17.1
2019-02-11T10:49:51.351Z,16.9
2019-02-11T10:50:42.073Z,16.9
2019-02-11T10:51:31.206Z,16.9
2019-02-11T10:52:20.679Z,16.8
2019-02-11T10:53:11.604Z,16.8
2019-02-11T10:54:01.446Z,16.7
2019-02-11T10:54:52.288Z,16.7
2019-02-11T10:55:41.016Z,16.6
2019-02-11T10:56:32.166Z,16.6
2019-02-11T10:57:21.606Z,16.6
2019-02-11T10:58:11.878Z,16.6
2019-02-11T10:59:02.028Z,16.7
2019-02-11T10:59:51.528Z,16.7
2019-02-11T11:00:42.385Z,16.7
2019-02-11T11:01:33.785Z,16.8
2019-02-11T11:02:21.725Z,16.8
2019-02-11T11:03:13.189Z,16.9
2019-02-11T11:04:01.318Z,16.8
2019-02-11T11:04:53.228Z,16.7
2019-02-11T11:05:42.000Z,16.7
2019-02-11T11:06:32.895Z,16.8
2019-02-11T11:07:22.312Z,16.8
2019-02-11T11:08:12.931Z,16.8
2019-02-11T11:09:04.592Z,16.8
2019-02-11T11:09:53.292Z,16.9
2019-02-11T11:10:41.997Z,16.9
2019-02-11T11:11:33.693Z,16.9
2019-02-11T11:12:21.814Z,16.9
2019-02-11T11:13:12.744Z,16.9
2019-02-11T11:14:02.564Z,16.9
2019-02-11T11:14:52.572Z,16.9
2019-02-11T11:15:42.527Z,16.9
2019-02-11T11:16:39.437Z,16.8
2019-02-11T11:17:22.162Z,16.8
2019-02-11T11:18:13.079Z,16.8
2019-02-11T11:19:02.569Z,16.7
2019-02-11T11:19:53.169Z,16.6
2019-02-11T11:20:42.774Z,16.6
2019-02-11T11:21:33.429Z,16.6
2019-02-11T11:22:23.876Z,16.6
2019-02-11T11:23:13.146Z,16.6
2019-02-11T11:24:03.289Z,16.6
2019-02-11T11:24:53.797Z,16.6
2019-02-11T11:25:44.134Z,16.6
2019-02-11T11:26:34.451Z,16.7